Central, UT (84722)

10:20 AM MDT on October 25, 2014 (GMT -0600)
Pine Valley | Change Station
CLOSE
Current Station
Personal Weather Station
Location: Pine Valley, UT
Elevation: 6640 ft
Nearby Weather Stations

Elev 6640 ft 37.39 °N, 113.53 °W | Updated 2 minutes ago

Clear
Clear
59.5 °F
Feels Like 59.5 °F
N
11.9
Wind Variable Wind from West

Today
High -- | Low -- °F
--% Chance of Precip.
Yesterday
High -- | Low -- °F
Precip. -- in
7:51 AM 6:44 PM
Waxing Crescent, 3% visible
Pressure 30.05 in
Visibility 10.0 miles
Clouds Clear
Dew Point 40 °F
Humidity 48%
Rainfall 0.00 in
Snow Depth 0 in , 0 in
UV 2 out of 12
Pollen 4.40 out of 12
Air Quality Not available.
Flu Activity Sporadic
METAR KCDC 251553Z AUTO 19005KT 10SM CLR 16/01 A3021 RMK AO2 SLP175 T01610006 TSNO

More Conditions Fewer Conditions

Pressure 30.05 in
Visibility 10.0 miles
Clouds Clear
Dew Point 40 °F
Humidity 48%
Rainfall 0.00 in
Snow Depth 0 in , 0 in
UV 2 out of 12
Pollen 4.40 out of 12
Air Quality Not available.
Flu Activity Sporadic
METAR KCDC 251553Z AUTO 19005KT 10SM CLR 16/01 A3021 RMK AO2 SLP175 T01610006 TSNO

More Conditions Fewer Conditions

10-Day Weather Forecast

Almanac

Astronomy

Oct. 25, 2014 Rise Set
Actual Time 7:51 AM MDT 6:44 PM MDT
Civil Twilight 7:25 AM MDT 7:10 PM MDT
Nautical Twilight 6:54 AM MDT 7:41 PM MDT
Astronomical Twilight 6:24 AM MDT 8:11 PM MDT
Moon 9:33 AM MDT 8:11 PM MDT
Length of Visible Light 11h 45m
Length of Day
10h 52m
Tomorrow will be 2m 12s shorter.
Waxing Crescent, 3% of the Moon is Illuminated
Today
Waxing Crescent
Oct 30
First Quarter
Nov 6
Full
Nov 14
Last Quarter
Nov 22
New

Today's Extremes

State Highs State Lows

Community

WunderPhotos

Upload Photos

1,764,890 photos uploaded!

Nearby

Snow Depth

Station Depth Elevation
Long Flat 0 in 8000 ft
Little Grassy 0 in 6100 ft
Kolob 0 in 9250 ft
Webster Flat 0 in 9200 ft
Midway Valley 0 in 9800 ft

Earthquake Activity

City Distance Mag. Time & Date
No recent earthquake activity has been reported nearby.
Minimum magnitude displayed is 2.5.

Coastal Water Temperatures

Place Temperature
No Stations Reporting

Nearby Weather Stations